Time;durP1;ratioP1;P1;durP2;ratioP2;P2;SDS_P1;SDS_P2;PMS_P1;PMS_P2;Temp;Humidity;BMP_temperature;BMP_pressure;BME280_temperature;BME280_humidity;BME280_pressure;Samples;Min_cycle;Max_cycle;Signal;HPM_P1;HPM_P2
2021/12/06 00:01:30;;;;;;;;;;;;;;;;;;;;;
2021/12/06 00:04:44;;;;;;;5.30;3.50;;;7.40;99.90;;;;;;6123063;23;21034;-85
2021/12/06 00:08:22;;;;;;;3.93;3.63;;;7.40;99.90;;;;;;6124718;23;20470;-88
2021/12/06 00:11:57;;;;;;;4.90;3.17;;;7.30;99.90;;;;;;6125939;23;20369;-85
2021/12/06 00:14:51;;;;;;;3.23;2.73;;;7.20;99.90;;;;;;6125776;23;20511;-87
2021/12/06 00:18:10;;;;;;;4.30;3.50;;;7.40;99.90;;;;;;6118135;23;20459;-86
2021/12/06 00:21:20;;;;;;;3.50;3.00;;;7.80;99.90;;;;;;6123523;23;20472;-86
2021/12/06 00:24:06;;;;;;;3.83;3.50;;;8.00;99.90;;;;;;6114280;23;21046;-87
2021/12/06 00:26:53;;;;;;;4.03;3.20;;;8.00;99.90;;;;;;6116766;23;20504;-86
2021/12/06 00:29:32;;;;;;;2.80;2.60;;;7.80;99.90;;;;;;6119911;23;20444;-86
2021/12/06 00:32:26;;;;;;;2.50;2.30;;;7.50;99.90;;;;;;6125306;23;20471;-86
2021/12/06 00:35:04;;;;;;;4.07;2.70;;;7.70;99.90;;;;;;6127724;23;20436;-86
2021/12/06 00:37:53;;;;;;;2.90;2.70;;;7.80;99.90;;;;;;6126259;23;20419;-89
2021/12/06 00:44:35;;;;;;;4.00;3.03;;;7.80;99.90;;;;;;6141115;23;20396;-87
2021/12/06 00:47:13;;;;;;;4.50;3.93;;;7.90;99.90;;;;;;6138630;23;20476;-85
2021/12/06 00:52:56;;;;;;;3.60;3.30;;;7.70;99.90;;;;;;6126137;23;20483;-88
2021/12/06 00:58:51;;;;;;;4.17;3.50;;;7.50;99.90;;;;;;6127875;23;20418;-87
2021/12/06 01:01:54;;;;;;;2.93;2.73;;;7.40;99.90;;;;;;6125894;23;20510;-89
2021/12/06 01:05:01;;;;;;;3.47;3.17;;;7.20;99.90;;;;;;6085097;23;20413;-88
2021/12/06 01:07:53;;;;;;;3.47;3.17;;;7.10;99.90;;;;;;6068504;23;20420;-86
2021/12/06 01:10:35;;;;;;;4.03;3.10;;;7.00;99.90;;;;;;6097518;23;20532;-87
2021/12/06 01:13:17;;;;;;;6.40;3.63;;;7.20;99.90;;;;;;6119060;23;20444;-87
2021/12/06 01:16:13;;;;;;;3.90;3.60;;;7.00;99.90;;;;;;6121568;23;20456;-87
2021/12/06 01:19:05;;;;;;;5.20;4.03;;;7.00;99.90;;;;;;6099690;23;20505;-86
2021/12/06 01:24:27;;;;;;;6.73;4.50;;;7.40;99.90;;;;;;6091836;23;20522;-86
2021/12/06 01:41:26;;;;;;;5.47;4.60;;;7.30;99.90;;;;;;6093594;23;20431;-86
2021/12/06 01:44:02;;;;;;;5.10;4.33;;;7.40;99.90;;;;;;6121414;23;20471;-87
2021/12/06 01:47:12;;;;;;;5.43;4.93;;;7.50;99.90;;;;;;6100882;23;20774;-85
2021/12/06 01:50:01;;;;;;;5.83;5.23;;;7.60;99.90;;;;;;6097867;23;20449;-87
2021/12/06 01:52:46;;;;;;;5.47;4.97;;;7.60;99.90;;;;;;6121593;23;21002;-88
2021/12/06 01:55:27;;;;;;;5.23;4.70;;;7.50;99.90;;;;;;6118927;23;20848;-87
2021/12/06 01:58:28;;;;;;;6.63;5.00;;;7.50;99.90;;;;;;6092519;23;20400;-87
2021/12/06 02:01:15;;;;;;;5.50;4.30;;;7.30;99.90;;;;;;6118934;23;20415;-88
2021/12/06 02:04:48;;;;;;;6.87;5.70;;;7.00;99.90;;;;;;6100520;23;20537;-88
2021/12/06 02:07:31;;;;;;;4.60;4.20;;;7.00;99.90;;;;;;6134675;23;20707;-88
2021/12/06 02:10:18;;;;;;;5.43;4.93;;;7.20;99.90;;;;;;6120193;23;20470;-89
2021/12/06 02:12:52;;;;;;;4.70;4.30;;;7.40;99.90;;;;;;6127061;23;20440;-90
2021/12/06 02:21:49;;;;;;;6.40;4.77;;;7.40;99.90;;;;;;6111943;23;20783;-86
2021/12/06 02:24:31;;;;;;;5.90;5.30;;;7.10;99.90;;;;;;6119460;23;20444;-88
2021/12/06 02:30:44;;;;;;;6.57;5.37;;;7.00;99.90;;;;;;6124041;23;20509;-86
2021/12/06 02:33:28;;;;;;;5.40;4.83;;;7.00;99.90;;;;;;6147177;23;20427;-86
2021/12/06 02:36:26;;;;;;;6.20;5.20;;;7.00;99.90;;;;;;6131838;23;20418;-88
2021/12/06 02:38:57;;;;;;;7.13;5.57;;;6.90;99.90;;;;;;6131260;23;20427;-87
2021/12/06 02:41:49;;;;;;;10.13;5.90;;;7.00;99.90;;;;;;6130837;23;20413;-88
2021/12/06 02:44:45;;;;;;;7.10;6.10;;;6.70;99.90;;;;;;6130657;23;20448;-87
2021/12/06 02:48:26;;;;;;;6.57;5.03;;;6.90;99.90;;;;;;6123020;23;20412;-87
2021/12/06 02:51:36;;;;;;;7.43;5.70;;;6.90;99.90;;;;;;6133302;23;20542;-90
2021/12/06 03:01:36;;;;;;;6.87;5.10;;;6.90;99.90;;;;;;6145822;23;20424;-89
2021/12/06 03:04:13;;;;;;;7.60;5.40;;;6.80;99.90;;;;;;6126297;23;20468;-87
2021/12/06 03:07:25;;;;;;;6.07;4.90;;;6.90;99.90;;;;;;6016494;23;20429;-89
2021/12/06 03:10:09;;;;;;;6.37;5.27;;;6.70;99.90;;;;;;5995523;23;20466;-86
2021/12/06 03:12:51;;;;;;;7.73;5.50;;;6.60;99.90;;;;;;6014894;23;20415;-85
2021/12/06 03:15:38;;;;;;;5.70;4.80;;;6.60;99.90;;;;;;6015185;23;20634;-87
2021/12/06 03:18:19;;;;;;;5.43;4.93;;;6.80;99.90;;;;;;6011815;23;20514;-88
2021/12/06 03:20:46;;;;;;;5.50;4.83;;;6.80;99.90;;;;;;5985886;23;20484;-85
2021/12/06 03:23:47;;;;;;;6.60;5.07;;;6.80;99.90;;;;;;6003824;23;20459;-87
2021/12/06 03:26:18;;;;;;;5.73;5.23;;;6.90;99.90;;;;;;6012444;23;20458;-87
2021/12/06 03:28:53;;;;;;;6.03;5.43;;;7.00;99.90;;;;;;6018647;23;20413;-88
2021/12/06 03:31:53;;;;;;;;;;;;;;;;;;;;;
2021/12/06 03:34:37;;;;;;;7.80;5.83;;;7.10;99.90;;;;;;6019699;23;20434;-88
2021/12/06 03:37:09;;;;;;;6.13;4.90;;;7.10;99.90;;;;;;6017766;23;20540;-89
2021/12/06 03:39:50;;;;;;;6.00;5.10;;;7.00;99.90;;;;;;6005537;23;20490;-87
2021/12/06 03:43:06;;;;;;;5.77;5.13;;;6.90;99.90;;;;;;5997609;23;20418;-88
2021/12/06 03:45:48;;;;;;;6.37;5.27;;;7.00;99.90;;;;;;6121155;23;20418;-88
2021/12/06 03:52:15;;;;;;;5.17;4.67;;;7.00;99.90;;;;;;6007383;23;20477;-85
2021/12/06 03:55:10;;;;;;;7.27;5.30;;;6.70;99.90;;;;;;6003573;23;20497;-84
2021/12/06 04:01:18;;;;;;;5.67;4.73;;;6.60;99.90;;;;;;6027290;23;20403;-89
2021/12/06 04:04:22;;;;;;;7.60;5.47;;;6.70;99.90;;;;;;6003176;23;20470;-87
2021/12/06 04:07:00;;;;;;;5.60;4.90;;;6.70;99.90;;;;;;6008991;23;20506;-88
2021/12/06 04:15:29;;;;;;;6.97;5.30;;;7.10;99.90;;;;;;6124937;23;20950;-88
2021/12/06 04:18:11;;;;;;;6.67;5.10;;;7.10;99.90;;;;;;6130250;23;20716;-87
2021/12/06 04:21:05;;;;;;;6.17;5.57;;;7.10;99.90;;;;;;6132998;23;20408;-87
2021/12/06 04:23:50;;;;;;;6.67;5.60;;;7.00;99.90;;;;;;6127818;23;20418;-87
2021/12/06 04:26:29;;;;;;;7.03;5.80;;;7.00;99.90;;;;;;6131411;23;20421;-87
2021/12/06 04:29:26;;;;;;;8.30;5.73;;;7.10;99.90;;;;;;6126639;23;20499;-87
2021/12/06 04:32:13;;;;;;;8.90;6.27;;;7.10;99.90;;;;;;6130811;23;20713;-87
2021/12/06 04:34:54;;;;;;;8.33;7.13;;;7.00;99.90;;;;;;6111423;23;20751;-86
2021/12/06 04:37:27;;;;;;;7.83;5.87;;;6.90;99.90;;;;;;6128862;23;20419;-87
2021/12/06 04:40:27;;;;;;;6.93;6.20;;;6.80;99.90;;;;;;6130694;23;20444;-86
2021/12/06 04:43:15;;;;;;;7.80;4.93;;;6.80;99.90;;;;;;6152387;23;20447;-87
2021/12/06 04:46:13;;;;;;;6.23;5.23;;;6.80;99.90;;;;;;6128756;23;20423;-86
2021/12/06 04:49:16;;;;;;;7.30;5.37;;;6.70;99.90;;;;;;6134372;23;20378;-86
2021/12/06 05:00:25;;;;;;;;;;;;;;;;;;;;;
2021/12/06 05:06:21;;;;;;;7.20;5.60;;;7.00;99.90;;;;;;6078964;23;20439;-89
2021/12/06 05:09:39;;;;;;;9.80;6.30;;;6.90;99.90;;;;;;5997292;24;20458;-86
2021/12/06 05:12:19;;;;;;;6.47;5.87;;;6.80;99.90;;;;;;6069348;23;20419;-88
2021/12/06 05:15:07;;;;;;;6.77;6.10;;;6.70;99.90;;;;;;6010419;23;20416;-88
2021/12/06 05:17:46;;;;;;;9.17;6.37;;;6.60;99.90;;;;;;6007688;23;20428;-88
2021/12/06 05:20:50;;;;;;;10.50;6.10;;;6.60;99.90;;;;;;6014346;23;20416;-86
2021/12/06 05:23:28;;;;;;;6.60;5.90;;;6.50;99.90;;;;;;6041125;23;20445;-88
2021/12/06 05:26:26;;;;;;;8.17;6.67;;;6.50;99.90;;;;;;6019021;23;20440;-86
2021/12/06 05:29:01;;;;;;;7.20;6.50;;;6.30;99.90;;;;;;6019214;23;20426;-87
2021/12/06 05:31:42;;;;;;;6.47;5.97;;;6.40;99.90;;;;;;6015840;23;20449;-88
2021/12/06 05:34:50;;;;;;;9.00;6.90;;;6.40;99.90;;;;;;6021238;23;20435;-87
2021/12/06 05:37:57;;;;;;;6.13;5.53;;;6.40;99.90;;;;;;6021441;23;20426;-85
2021/12/06 05:41:05;;;;;;;6.57;5.70;;;6.30;99.90;;;;;;6039402;23;20410;-87
2021/12/06 05:44:02;;;;;;;6.10;5.50;;;6.30;99.90;;;;;;6018200;23;20481;-87
2021/12/06 05:46:56;;;;;;;6.20;5.70;;;6.30;99.90;;;;;;6019010;23;20462;-87
2021/12/06 05:49:49;;;;;;;6.30;5.43;;;6.40;99.90;;;;;;6006226;23;20415;-86
2021/12/06 05:52:33;;;;;;;6.67;5.97;;;6.30;99.90;;;;;;6020009;23;20826;-86
2021/12/06 05:55:33;;;;;;;7.47;5.70;;;6.30;99.90;;;;;;6042569;23;20411;-86
2021/12/06 05:58:11;;;;;;;8.63;6.23;;;6.30;99.90;;;;;;6019818;23;20443;-85
2021/12/06 06:00:49;;;;;;;9.10;5.70;;;6.10;99.90;;;;;;6019348;23;20435;-86
2021/12/06 06:03:19;;;;;;;6.40;5.80;;;6.00;99.90;;;;;;6020187;23;20476;-88
2021/12/06 06:06:25;;;;;;;12.50;8.20;;;6.10;99.90;;;;;;6038603;23;20423;-87
2021/12/06 06:09:03;;;;;;;11.73;7.83;;;6.00;99.90;;;;;;6039263;23;20517;-86
2021/12/06 06:11:44;;;;;;;10.00;7.50;;;5.80;99.90;;;;;;6030344;23;20475;-86
2021/12/06 06:14:24;;;;;;;8.40;7.00;;;5.70;99.90;;;;;;6029964;23;20440;-87
2021/12/06 06:21:01;;;;;;;11.37;6.80;;;5.90;99.90;;;;;;6006755;23;20431;-87
2021/12/06 06:27:25;;;;;;;7.37;6.40;;;5.60;99.90;;;;;;5955710;24;20425;-87
2021/12/06 06:30:16;;;;;;;8.67;6.33;;;5.50;99.90;;;;;;5934554;24;20519;-86
2021/12/06 06:33:49;;;;;;;8.33;6.83;;;5.70;99.90;;;;;;5926290;24;20419;-87
2021/12/06 06:36:41;;;;;;;7.50;6.50;;;5.80;99.90;;;;;;6017525;23;20486;-86
2021/12/06 06:39:40;;;;;;;8.00;5.57;;;5.80;99.90;;;;;;6036415;23;20438;-87
2021/12/06 06:42:46;;;;;;;6.70;5.77;;;5.70;99.90;;;;;;6059722;23;20529;-86
2021/12/06 06:45:38;;;;;;;7.43;6.10;;;5.60;99.90;;;;;;6038775;23;20474;-86
2021/12/06 06:48:30;;;;;;;9.47;6.53;;;5.60;99.90;;;;;;6041369;23;20412;-88
2021/12/06 06:51:04;;;;;;;8.67;7.20;;;5.60;99.90;;;;;;6063898;23;20458;-87
2021/12/06 06:54:12;;;;;;;8.13;6.80;;;5.40;99.90;;;;;;6039300;23;20437;-86
2021/12/06 06:57:21;;;;;;;10.90;6.90;;;5.20;99.90;;;;;;6021060;23;20935;-88
2021/12/06 07:00:15;;;;;;;7.00;6.30;;;5.30;99.90;;;;;;6038021;23;20395;-88
2021/12/06 07:05:55;;;;;;;8.73;7.80;;;5.20;99.90;;;;;;6120880;23;20462;-84
2021/12/06 07:08:43;;;;;;;9.50;7.83;;;5.30;99.90;;;;;;6127427;23;21149;-88
2021/12/06 07:11:24;;;;;;;12.00;8.50;;;5.30;99.90;;;;;;6121808;23;20444;-87
2021/12/06 07:14:08;;;;;;;10.43;8.80;;;5.20;99.90;;;;;;6117235;23;20444;-87
2021/12/06 07:17:07;;;;;;;11.03;8.43;;;5.20;99.90;;;;;;6119384;23;20425;-87
2021/12/06 07:20:00;;;;;;;;;;;;;;;;;;;;;
2021/12/06 07:22:44;;;;;;;13.60;11.13;;;5.30;99.90;;;;;;6127083;23;20409;-85
2021/12/06 07:25:25;;;;;;;14.83;10.37;;;5.10;99.90;;;;;;6132173;23;20413;-85
2021/12/06 07:28:13;;;;;;;19.00;13.53;;;4.90;99.90;;;;;;6131584;23;20446;-86
2021/12/06 07:30:46;;;;;;;21.90;13.90;;;4.80;99.90;;;;;;6126984;23;20949;-87
2021/12/06 07:33:28;;;;;;;21.97;15.27;;;4.70;99.90;;;;;;6130446;23;20442;-86
2021/12/06 07:36:16;;;;;;;22.50;16.37;;;4.70;99.90;;;;;;6131564;23;20472;-86
2021/12/06 07:38:43;;;;;;;26.40;17.07;;;4.80;99.90;;;;;;6126319;23;20417;-86
2021/12/06 07:41:35;;;;;;;26.13;16.77;;;4.80;99.90;;;;;;6125844;23;20449;-88
2021/12/06 07:44:12;;;;;;;29.07;15.67;;;4.70;99.90;;;;;;6102645;23;21028;-86
2021/12/06 07:46:55;;;;;;;24.70;17.73;;;4.80;99.90;;;;;;6098873;23;20432;-85
2021/12/06 07:49:37;;;;;;;29.73;16.50;;;4.90;99.90;;;;;;6099545;23;20419;-85
2021/12/06 07:56:00;;;;;;;29.50;17.63;;;4.90;99.90;;;;;;6154207;23;20428;-85
2021/12/06 07:59:15;;;;;;;32.10;19.57;;;4.80;99.90;;;;;;6152223;23;20472;-87
2021/12/06 08:05:54;;;;;;;32.30;19.07;;;4.80;99.90;;;;;;6081771;23;20405;-88
2021/12/06 08:08:50;;;;;;;34.73;19.80;;;4.80;99.90;;;;;;5947227;24;20412;-88
2021/12/06 08:11:25;;;;;;;32.43;18.03;;;5.00;99.90;;;;;;5968196;24;20437;-88
2021/12/06 08:16:54;;;;;;;27.70;17.10;;;5.00;99.90;;;;;;6116844;23;20472;-87
2021/12/06 08:19:31;;;;;;;29.83;18.50;;;5.20;99.90;;;;;;6072376;23;20468;-86
2021/12/06 08:22:17;;;;;;;31.77;18.47;;;5.30;99.90;;;;;;6097818;23;20483;-85
2021/12/06 08:25:09;;;;;;;27.60;19.47;;;5.10;99.90;;;;;;6075588;23;20439;-86
2021/12/06 08:28:50;;;;;;;30.63;20.03;;;5.00;99.90;;;;;;6077938;23;21243;-87
2021/12/06 08:32:05;;;;;;;32.93;18.17;;;5.20;99.90;;;;;;5987250;24;20450;-86
2021/12/06 08:40:27;;;;;;;34.10;17.73;;;5.40;99.90;;;;;;6130101;23;20432;-86
2021/12/06 08:50:26;;;;;;;;;;;;;;;;;;;;;
2021/12/06 09:01:39;;;;;;;19.00;14.27;;;5.50;99.90;;;;;;5945084;24;20387;-90
2021/12/06 09:15:59;;;;;;;25.60;15.90;;;5.80;99.90;;;;;;6161463;23;20428;-87
2021/12/06 09:19:23;;;;;;;20.50;15.50;;;5.80;99.90;;;;;;6140946;23;20395;-85
2021/12/06 09:25:36;;;;;;;30.70;18.23;;;6.30;99.90;;;;;;6144838;23;20443;-86
2021/12/06 09:29:13;;;;;;;26.27;16.57;;;6.40;99.90;;;;;;6117117;23;20419;-88
2021/12/06 09:36:00;;;;;;;28.50;19.10;;;6.40;99.90;;;;;;6109645;23;20423;-86
2021/12/06 09:39:03;;;;;;;27.83;18.50;;;6.20;99.90;;;;;;6085881;23;20388;-86
2021/12/06 09:49:38;;;;;;;32.70;19.30;;;6.00;99.90;;;;;;6143104;23;20546;-86
2021/12/06 09:55:33;;;;;;;;;;;;;;;;;;;;;
2021/12/06 10:02:30;;;;;;;34.57;20.17;;;6.20;99.90;;;;;;6107426;23;20391;-88
2021/12/06 10:09:34;;;;;;;30.30;21.20;;;6.20;99.90;;;;;;6057194;23;20458;-87
2021/12/06 10:16:31;;;;;;;34.60;21.33;;;6.50;99.90;;;;;;5980823;24;20957;-84
2021/12/06 10:20:01;;;;;;;30.20;19.97;;;6.40;99.90;;;;;;5966338;23;20476;-87
2021/12/06 10:26:12;;;;;;;32.87;20.27;;;6.90;99.90;;;;;;6146954;23;20422;-87
2021/12/06 10:29:48;;;;;;;32.00;19.27;;;6.70;99.90;;;;;;6147602;23;20413;-89
2021/12/06 10:38:53;;;;;;;31.90;18.87;;;6.30;99.90;;;;;;6164556;23;20429;-86
2021/12/06 10:42:36;;;;;;;26.03;18.03;;;6.30;99.90;;;;;;6141149;23;20405;-87
2021/12/06 10:48:30;;;;;;;26.67;17.43;;;6.20;99.90;;;;;;6091681;23;20565;-87
2021/12/06 10:52:09;;;;;;;28.67;17.40;;;6.40;99.90;;;;;;6134323;23;20446;-87
2021/12/06 10:55:41;;;;;;;25.07;17.53;;;6.40;99.90;;;;;;6095366;23;20452;-87
2021/12/06 10:59:10;;;;;;;;;;;;;;;;;;;;;
2021/12/06 11:02:19;;;;;;;25.73;15.90;;;6.50;99.90;;;;;;6108056;23;20415;-86
2021/12/06 11:05:48;;;;;;;;;;;;;;;;;;;;;
2021/12/06 11:13:09;;;;;;;26.33;16.43;;;7.30;99.90;;;;;;6108315;23;20451;-86
2021/12/06 11:16:24;;;;;;;24.77;16.07;;;7.50;99.90;;;;;;6063470;23;20384;-86
2021/12/06 11:19:57;;;;;;;25.73;16.97;;;7.40;99.90;;;;;;6086725;23;20483;-86
2021/12/06 11:23:20;;;;;;;22.73;15.87;;;7.50;99.90;;;;;;6097121;23;20692;-87
2021/12/06 11:26:45;;;;;;;25.23;15.40;;;7.60;99.90;;;;;;6103234;23;20419;-88
2021/12/06 11:29:57;;;;;;;27.57;14.70;;;7.30;99.90;;;;;;6098567;23;20399;-88
2021/12/06 11:38:01;;;;;;;22.13;15.83;;;7.10;99.90;;;;;;6141860;23;20459;-86
2021/12/06 11:41:10;;;;;;;27.97;15.60;;;7.30;99.90;;;;;;6112564;23;20409;-90
2021/12/06 11:47:35;;;;;;;26.83;15.63;;;7.40;99.90;;;;;;6159380;23;20474;-85
2021/12/06 11:51:01;;;;;;;23.63;15.90;;;7.30;99.90;;;;;;6073432;23;20414;-88
2021/12/06 11:54:46;;;;;;;29.27;16.60;;;7.20;99.90;;;;;;6136760;23;20495;-87
2021/12/06 12:15:37;;;;;;;27.03;13.53;;;7.40;99.90;;;;;;6131277;23;20475;-88
2021/12/06 12:56:41;;;;;;;11.23;8.47;;;8.00;99.90;;;;;;6163669;23;20462;-87
2021/12/06 13:03:04;;;;;;;;;;;;;;;;;;;;;
2021/12/06 13:10:17;;;;;;;12.63;8.77;;;7.90;99.90;;;;;;6027296;23;20406;-86
2021/12/06 13:20:06;;;;;;;15.17;8.20;;;8.10;99.90;;;;;;6150903;23;20426;-87
2021/12/06 13:26:51;;;;;;;10.27;7.73;;;8.00;99.90;;;;;;6043473;23;20453;-88
2021/12/06 13:34:10;;;;;;;9.13;7.03;;;7.90;99.90;;;;;;6056789;23;20543;-87
2021/12/06 13:37:14;;;;;;;9.17;7.20;;;8.00;99.90;;;;;;6022612;23;20410;-86
2021/12/06 13:40:18;;;;;;;12.00;8.07;;;7.80;99.90;;;;;;6080548;23;20504;-87
2021/12/06 13:43:49;;;;;;;8.93;5.77;;;7.80;99.90;;;;;;6101938;23;20520;-88
2021/12/06 13:50:27;;;;;;;7.30;5.20;;;7.80;99.90;;;;;;6100947;23;20368;-86
2021/12/06 13:54:04;;;;;;;9.93;5.73;;;8.00;99.90;;;;;;6074737;23;20463;-87
2021/12/06 13:57:27;;;;;;;6.20;4.80;;;8.00;99.80;;;;;;6060567;23;20423;-87
2021/12/06 14:09:42;;;;;;;2.40;2.20;;;8.10;95.40;;;;;;6077596;23;20437;-86
2021/12/06 14:16:06;;;;;;;5.90;4.00;;;7.90;96.70;;;;;;6100635;23;20434;-87
2021/12/06 14:19:26;;;;;;;2.70;2.47;;;7.60;97.30;;;;;;6041828;23;20411;-88
2021/12/06 14:26:25;;;;;;;3.67;2.53;;;7.50;98.20;;;;;;6120971;23;20425;-87
2021/12/06 14:29:36;;;;;;;4.73;2.87;;;7.40;98.00;;;;;;5961957;24;20413;-87
2021/12/06 14:32:21;;;;;;;3.60;3.30;;;7.40;97.70;;;;;;5963270;24;20449;-88
2021/12/06 14:34:59;;;;;;;4.00;3.30;;;7.20;97.30;;;;;;5961094;24;20523;-86
2021/12/06 14:38:15;;;;;;;3.73;3.13;;;7.10;97.10;;;;;;5983155;24;20536;-86
2021/12/06 14:44:33;;;;;;;2.90;2.60;;;7.00;96.90;;;;;;5970196;24;20432;-87
2021/12/06 14:47:31;;;;;;;3.27;2.97;;;6.90;96.80;;;;;;5891139;24;20762;-86
2021/12/06 14:50:01;;;;;;;3.23;2.93;;;6.90;96.70;;;;;;5958210;24;20464;-86
2021/12/06 14:52:35;;;;;;;5.30;4.00;;;6.90;96.90;;;;;;5960129;23;20452;-87
2021/12/06 14:57:48;;;;;;;3.73;3.30;;;6.90;96.80;;;;;;6129356;23;21224;-86
2021/12/06 15:00:22;;;;;;;3.67;2.60;;;6.80;96.90;;;;;;6129259;23;20998;-87
2021/12/06 15:02:58;;;;;;;9.53;4.80;;;6.80;97.00;;;;;;6102992;23;20984;-86
2021/12/06 15:05:38;;;;;;;6.33;3.60;;;6.80;97.10;;;;;;6102774;23;20431;-87
2021/12/06 15:08:14;;;;;;;5.90;4.00;;;6.70;97.40;;;;;;6101129;23;20416;-89
2021/12/06 15:10:46;;;;;;;5.13;3.40;;;6.70;97.60;;;;;;6101609;23;20518;-86
2021/12/06 15:13:14;;;;;;;3.43;2.83;;;6.70;97.40;;;;;;6102920;23;20861;-86
2021/12/06 15:15:47;;;;;;;4.40;4.00;;;6.70;97.60;;;;;;6104669;23;20597;-86
2021/12/06 15:18:18;;;;;;;5.10;3.20;;;6.60;97.40;;;;;;6092652;23;20447;-85
2021/12/06 15:20:46;;;;;;;4.97;3.60;;;6.70;97.60;;;;;;6099496;23;20499;-85
2021/12/06 15:23:17;;;;;;;6.00;4.33;;;6.60;97.50;;;;;;6081375;23;20448;-87
2021/12/06 15:25:47;;;;;;;6.00;4.00;;;6.70;97.40;;;;;;6071049;23;20425;-86
2021/12/06 15:28:15;;;;;;;4.60;3.23;;;6.80;97.50;;;;;;6078320;23;20404;-87
2021/12/06 15:30:42;;;;;;;4.07;3.60;;;6.70;97.50;;;;;;6081449;23;20418;-85
2021/12/06 15:33:13;;;;;;;6.20;4.10;;;6.60;97.60;;;;;;6074934;23;20454;-88
2021/12/06 15:36:05;;;;;;;4.83;3.77;;;6.60;97.80;;;;;;6075495;23;20798;-86
2021/12/06 15:38:56;;;;;;;4.77;4.10;;;6.70;97.70;;;;;;6075179;23;20416;-85
2021/12/06 15:41:30;;;;;;;5.50;3.60;;;6.80;97.50;;;;;;6076518;23;20425;-87
2021/12/06 15:44:21;;;;;;;5.37;3.90;;;6.80;97.30;;;;;;6078584;23;20444;-87
2021/12/06 15:46:58;;;;;;;4.77;3.33;;;6.70;97.40;;;;;;6075647;23;20513;-86
2021/12/06 15:49:28;;;;;;;3.70;3.13;;;6.60;97.60;;;;;;6075544;23;20812;-85
2021/12/06 15:51:59;;;;;;;5.57;4.50;;;6.50;97.90;;;;;;6076687;23;20438;-85
2021/12/06 15:54:49;;;;;;;7.03;5.03;;;6.60;98.20;;;;;;6099243;23;20440;-85
2021/12/06 15:57:24;;;;;;;3.67;3.07;;;6.50;97.90;;;;;;6088231;23;20441;-87
2021/12/06 15:59:51;;;;;;;6.17;4.13;;;6.50;98.10;;;;;;6084324;23;20440;-87
2021/12/06 16:02:24;;;;;;;6.63;3.87;;;6.60;97.70;;;;;;6098703;23;20418;-86
2021/12/06 16:04:53;;;;;;;4.17;3.40;;;6.60;97.40;;;;;;6097876;23;20585;-85
2021/12/06 16:07:33;;;;;;;4.00;3.60;;;6.50;97.50;;;;;;6099938;23;20422;-86
2021/12/06 16:10:03;;;;;;;6.43;4.50;;;6.60;97.50;;;;;;6097554;23;20612;-87
2021/12/06 16:12:31;;;;;;;4.10;3.70;;;6.50;97.40;;;;;;6071677;23;20478;-87
2021/12/06 16:15:02;;;;;;;5.43;3.83;;;6.50;97.40;;;;;;6071118;23;20453;-86
2021/12/06 16:17:35;;;;;;;4.10;3.60;;;6.60;97.20;;;;;;6064559;23;20413;-85
2021/12/06 16:20:17;;;;;;;5.63;3.70;;;6.70;97.00;;;;;;6059636;23;20496;-84
2021/12/06 16:22:48;;;;;;;6.07;3.80;;;6.50;97.10;;;;;;6058849;23;20499;-86
2021/12/06 16:25:31;;;;;;;5.30;4.43;;;6.60;97.50;;;;;;6089769;23;20428;-87
2021/12/06 16:28:04;;;;;;;4.13;3.53;;;6.70;97.30;;;;;;6054242;23;20452;-88
2021/12/06 16:30:39;;;;;;;4.83;3.60;;;6.70;97.20;;;;;;6101527;23;20415;-88
2021/12/06 16:33:06;;;;;;;2.90;2.60;;;6.70;97.30;;;;;;6093062;23;20476;-84
2021/12/06 16:36:32;;;;;;;3.43;2.80;;;6.90;97.00;;;;;;6113394;23;20416;-87
2021/12/06 16:39:33;;;;;;;4.17;3.40;;;6.70;96.90;;;;;;6114973;23;20447;-88
2021/12/06 16:42:59;;;;;;;;;;;;;;;;;;;;;
2021/12/06 16:45:38;;;;;;;3.60;3.30;;;6.90;97.00;;;;;;6145867;23;20417;-87
2021/12/06 16:48:27;;;;;;;4.60;3.40;;;6.90;96.90;;;;;;6109921;23;20445;-86
2021/12/06 16:50:59;;;;;;;5.47;3.80;;;6.90;96.70;;;;;;6115800;23;20448;-86
2021/12/06 16:53:35;;;;;;;5.13;3.57;;;6.80;96.70;;;;;;6097272;23;20459;-85
2021/12/06 16:56:04;;;;;;;4.10;3.40;;;6.80;96.90;;;;;;6099593;23;20414;-85
2021/12/06 16:58:42;;;;;;;5.47;3.83;;;6.80;96.90;;;;;;6099156;23;20431;-85
2021/12/06 17:01:11;;;;;;;4.63;3.40;;;6.70;97.10;;;;;;6127088;23;20406;-87
2021/12/06 17:03:44;;;;;;;3.40;3.10;;;6.70;97.20;;;;;;6101081;23;20443;-86
2021/12/06 17:06:19;;;;;;;3.37;2.50;;;6.60;97.40;;;;;;6108462;23;20433;-88
2021/12/06 17:09:11;;;;;;;4.87;3.47;;;6.60;97.30;;;;;;6108848;23;20402;-88
2021/12/06 17:11:42;;;;;;;4.57;4.17;;;6.70;97.30;;;;;;6127794;23;20415;-88
2021/12/06 17:14:14;;;;;;;5.20;3.93;;;6.60;97.10;;;;;;6103019;23;20436;-87
2021/12/06 17:16:51;;;;;;;4.23;3.83;;;6.70;97.00;;;;;;6102827;23;20434;-86
2021/12/06 17:19:35;;;;;;;4.73;3.93;;;6.60;97.00;;;;;;6098113;23;20655;-85
2021/12/06 17:22:15;;;;;;;6.43;4.23;;;6.60;96.80;;;;;;6098935;23;20420;-86
2021/12/06 17:24:50;;;;;;;6.03;4.30;;;6.40;96.90;;;;;;6100712;23;20453;-87
2021/12/06 17:27:31;;;;;;;4.30;3.90;;;6.40;96.80;;;;;;6104725;23;20698;-85
2021/12/06 17:29:58;;;;;;;3.50;3.10;;;6.30;97.10;;;;;;6126075;23;20468;-86
2021/12/06 17:32:26;;;;;;;4.07;3.47;;;6.30;97.20;;;;;;6102915;23;20795;-84
2021/12/06 17:34:54;;;;;;;5.17;4.20;;;6.40;97.10;;;;;;6130849;23;20423;-85
2021/12/06 17:37:21;;;;;;;9.83;5.93;;;6.40;96.90;;;;;;6103489;23;20432;-88
2021/12/06 17:39:49;;;;;;;9.07;7.40;;;6.40;97.00;;;;;;6100716;23;20422;-86
2021/12/06 17:42:19;;;;;;;5.43;4.17;;;6.40;97.00;;;;;;6130182;23;20487;-88
2021/12/06 17:44:51;;;;;;;10.80;8.30;;;6.20;97.10;;;;;;6105911;23;20467;-85
2021/12/06 17:47:26;;;;;;;7.23;5.27;;;6.30;97.50;;;;;;6104314;23;20422;-86
2021/12/06 17:49:53;;;;;;;5.77;4.57;;;6.30;97.50;;;;;;6104928;23;20423;-88
2021/12/06 17:52:21;;;;;;;4.87;3.93;;;6.40;97.40;;;;;;6103236;23;20450;-87
2021/12/06 17:55:07;;;;;;;5.13;3.90;;;6.30;97.60;;;;;;6130902;23;20434;-84
2021/12/06 17:57:47;;;;;;;7.90;7.10;;;6.30;97.70;;;;;;6105289;23;20422;-87
2021/12/06 18:00:16;;;;;;;5.60;4.97;;;6.30;97.70;;;;;;6104236;23;20415;-86
2021/12/06 18:02:43;;;;;;;4.10;3.70;;;6.20;97.90;;;;;;6101550;23;20437;-86
2021/12/06 18:05:14;;;;;;;5.10;3.77;;;6.20;98.00;;;;;;6102285;23;20542;-88
2021/12/06 18:07:44;;;;;;;14.97;10.47;;;6.10;98.20;;;;;;6103514;23;20542;-87
2021/12/06 18:10:14;;;;;;;11.90;10.63;;;6.10;98.50;;;;;;6102749;23;20419;-89
2021/12/06 18:12:42;;;;;;;5.33;4.10;;;6.10;98.50;;;;;;6104822;23;20693;-86
2021/12/06 18:15:12;;;;;;;5.23;4.13;;;6.30;98.50;;;;;;6112175;23;20487;-88
2021/12/06 18:17:39;;;;;;;12.17;8.97;;;6.30;98.30;;;;;;6112503;23;20430;-86
2021/12/06 18:20:10;;;;;;;9.47;7.30;;;6.40;98.20;;;;;;6122855;23;20428;-87
2021/12/06 18:22:37;;;;;;;8.43;7.13;;;6.30;98.30;;;;;;6099627;23;20441;-87
2021/12/06 18:25:11;;;;;;;24.93;14.70;;;6.30;98.30;;;;;;6095027;23;20452;-86
2021/12/06 18:27:38;;;;;;;6.30;5.10;;;6.30;98.00;;;;;;6096599;23;20440;-85
2021/12/06 18:30:12;;;;;;;18.70;11.87;;;6.30;98.30;;;;;;6103917;23;20527;-84
2021/12/06 18:32:44;;;;;;;10.70;6.70;;;6.40;98.00;;;;;;6103225;23;20464;-85
2021/12/06 18:35:15;;;;;;;6.83;5.77;;;6.40;97.90;;;;;;6103638;23;20444;-87
2021/12/06 18:37:51;;;;;;;15.20;8.90;;;6.30;98.10;;;;;;6112061;23;20411;-87
2021/12/06 18:40:41;;;;;;;28.37;21.57;;;6.30;98.00;;;;;;6110563;23;20445;-86
2021/12/06 18:43:08;;;;;;;8.53;7.73;;;6.30;98.20;;;;;;6105146;23;20445;-86
2021/12/06 18:45:39;;;;;;;5.50;4.90;;;6.20;98.70;;;;;;6100618;23;20979;-88
2021/12/06 18:48:19;;;;;;;9.97;7.47;;;6.10;99.10;;;;;;6102340;23;20441;-87
2021/12/06 18:50:49;;;;;;;8.93;6.77;;;6.20;99.00;;;;;;6103491;23;20473;-85
2021/12/06 18:53:24;;;;;;;12.03;6.67;;;6.30;98.90;;;;;;6103470;23;20454;-86
2021/12/06 18:55:59;;;;;;;6.70;4.50;;;6.20;98.90;;;;;;6102438;23;20412;-87
2021/12/06 18:58:26;;;;;;;9.50;6.87;;;6.20;99.10;;;;;;6100161;23;20723;-87
2021/12/06 19:00:57;;;;;;;5.13;4.63;;;6.20;98.90;;;;;;6098320;23;20489;-87
2021/12/06 19:03:27;;;;;;;5.50;4.00;;;6.10;99.30;;;;;;6099548;23;20440;-85
2021/12/06 19:06:01;;;;;;;6.23;4.67;;;6.10;99.20;;;;;;6129558;23;20682;-86
2021/12/06 19:08:42;;;;;;;6.07;5.00;;;6.10;99.20;;;;;;6105328;23;20423;-86
2021/12/06 19:11:12;;;;;;;5.00;4.50;;;6.10;99.10;;;;;;6100920;23;20418;-87
2021/12/06 19:13:39;;;;;;;6.03;4.27;;;6.00;99.30;;;;;;6099427;23;20486;-88
2021/12/06 19:16:10;;;;;;;5.33;4.57;;;5.90;99.60;;;;;;6099991;23;20497;-86
2021/12/06 19:18:45;;;;;;;6.77;5.20;;;5.90;99.80;;;;;;6094141;23;20416;-87
2021/12/06 19:21:16;;;;;;;7.50;6.27;;;6.00;99.60;;;;;;6088924;23;20447;-87
2021/12/06 19:23:48;;;;;;;5.63;5.07;;;5.90;99.80;;;;;;6091312;23;20553;-88
2021/12/06 19:26:15;;;;;;;4.77;3.80;;;5.80;99.90;;;;;;6091585;23;20416;-87
2021/12/06 19:28:43;;;;;;;10.20;7.60;;;5.70;99.90;;;;;;6094344;23;20476;-88
2021/12/06 19:31:11;;;;;;;7.27;5.00;;;5.90;99.90;;;;;;6099806;23;20451;-87
2021/12/06 19:33:39;;;;;;;6.17;5.30;;;6.00;99.90;;;;;;6096408;23;20452;-86
2021/12/06 19:36:09;;;;;;;7.33;5.50;;;5.90;99.90;;;;;;6089107;23;20417;-86